sensor_id;sensor_type;location;lat;lon;timestamp;pressure;altitude;pressure_sealevel;temperature;humidity
48035;BME280;33812;46.480;6.834;2022-12-11T00:01:56;92682.22;;;20.66;36.96
48035;BME280;33812;46.480;6.834;2022-12-11T00:05:58;92674.84;;;20.63;37.08
48035;BME280;33812;46.480;6.834;2022-12-11T00:10:00;92685.13;;;20.62;36.88
48035;BME280;33812;46.480;6.834;2022-12-11T00:14:02;92693.72;;;20.64;36.77
48035;BME280;33812;46.480;6.834;2022-12-11T00:18:05;92682.06;;;20.60;36.39
48035;BME280;33812;46.480;6.834;2022-12-11T00:22:06;92686.06;;;20.59;36.35
48035;BME280;33812;46.480;6.834;2022-12-11T00:26:11;92688.81;;;20.59;36.55
48035;BME280;33812;46.480;6.834;2022-12-11T00:30:13;92688.81;;;20.59;36.12
48035;BME280;33812;46.480;6.834;2022-12-11T00:34:16;92692.63;;;20.62;36.33
48035;BME280;33812;46.480;6.834;2022-12-11T00:38:20;92687.28;;;20.58;36.19
48035;BME280;33812;46.480;6.834;2022-12-11T00:42:22;92688.03;;;20.59;36.54
48035;BME280;33812;46.480;6.834;2022-12-11T00:46:24;92689.56;;;20.60;36.13
48035;BME280;33812;46.480;6.834;2022-12-11T00:50:27;92697.25;;;20.56;36.29
48035;BME280;33812;46.480;6.834;2022-12-11T00:54:29;92689.25;;;20.58;36.25
48035;BME280;33812;46.480;6.834;2022-12-11T00:58:30;92693.25;;;20.57;36.47
48035;BME280;33812;46.480;6.834;2022-12-11T01:02:32;92696.31;;;20.59;36.21
48035;BME280;33812;46.480;6.834;2022-12-11T01:06:35;92696.31;;;20.59;36.23
48035;BME280;33812;46.480;6.834;2022-12-11T01:10:37;92700.28;;;20.58;36.33
48035;BME280;33812;46.480;6.834;2022-12-11T01:14:39;92699.69;;;20.53;35.64
48035;BME280;33812;46.480;6.834;2022-12-11T01:18:41;92702.00;;;20.55;36.15
48035;BME280;33812;46.480;6.834;2022-12-11T01:22:44;92695.69;;;20.54;36.06
48035;BME280;33812;46.480;6.834;2022-12-11T01:26:46;92698.94;;;20.53;36.61
48035;BME280;33812;46.480;6.834;2022-12-11T01:30:48;92704.44;;;20.53;35.78
48035;BME280;33812;46.480;6.834;2022-12-11T01:34:50;92713.50;;;20.53;36.00
48035;BME280;33812;46.480;6.834;2022-12-11T01:38:53;92724.22;;;20.51;35.74
48035;BME280;33812;46.480;6.834;2022-12-11T01:42:55;92728.22;;;20.50;35.84
48035;BME280;33812;46.480;6.834;2022-12-11T01:46:57;92720.69;;;20.51;35.71
48035;BME280;33812;46.480;6.834;2022-12-11T01:51:02;92717.94;;;20.51;35.93
48035;BME280;33812;46.480;6.834;2022-12-11T01:55:07;92717.19;;;20.50;35.71
48035;BME280;33812;46.480;6.834;2022-12-11T01:59:10;92716.41;;;20.50;35.26
48035;BME280;33812;46.480;6.834;2022-12-11T02:03:15;92722.72;;;20.50;35.29
48035;BME280;33812;46.480;6.834;2022-12-11T02:07:17;92706.16;;;20.50;35.75
48035;BME280;33812;46.480;6.834;2022-12-11T02:11:27;92708.59;;;20.48;35.33
48035;BME280;33812;46.480;6.834;2022-12-11T02:15:34;92711.03;;;20.46;35.33
48035;BME280;33812;46.480;6.834;2022-12-11T02:19:50;92713.03;;;20.46;35.63
48035;BME280;33812;46.480;6.834;2022-12-11T02:28:31;92725.16;;;20.48;35.41
48035;BME280;33812;46.480;6.834;2022-12-11T02:32:37;92720.56;;;20.45;35.22
48035;BME280;33812;46.480;6.834;2022-12-11T02:36:43;92725.44;;;20.41;35.39
48035;BME280;33812;46.480;6.834;2022-12-11T02:40:48;92718.09;;;20.47;35.13
48035;BME280;33812;46.480;6.834;2022-12-11T02:44:54;92713.50;;;20.44;35.22
48035;BME280;33812;46.480;6.834;2022-12-11T02:48:57;92711.19;;;20.42;34.86
48035;BME280;33812;46.480;6.834;2022-12-11T02:53:00;92712.44;;;20.41;35.43
48035;BME280;33812;46.480;6.834;2022-12-11T02:57:07;92718.69;;;20.42;34.93
48035;BME280;33812;46.480;6.834;2022-12-11T03:01:11;92719.16;;;20.40;34.88
48035;BME280;33812;46.480;6.834;2022-12-11T03:05:13;92720.72;;;20.41;34.84
48035;BME280;33812;46.480;6.834;2022-12-11T03:09:15;92742.47;;;20.39;35.26
48035;BME280;33812;46.480;6.834;2022-12-11T03:13:19;92746.00;;;20.40;34.78
48035;BME280;33812;46.480;6.834;2022-12-11T03:17:28;92744.91;;;20.37;34.83
48035;BME280;33812;46.480;6.834;2022-12-11T03:21:34;92743.69;;;20.38;34.53
48035;BME280;33812;46.480;6.834;2022-12-11T03:25:43;92731.56;;;20.36;34.62
48035;BME280;33812;46.480;6.834;2022-12-11T03:29:53;92729.88;;;20.38;34.92
48035;BME280;33812;46.480;6.834;2022-12-11T03:34:01;92726.06;;;20.36;34.89
48035;BME280;33812;46.480;6.834;2022-12-11T03:38:07;92713.03;;;20.36;34.94
48035;BME280;33812;46.480;6.834;2022-12-11T03:42:12;92709.97;;;20.34;34.41
48035;BME280;33812;46.480;6.834;2022-12-11T03:46:15;92721.78;;;20.35;34.28
48035;BME280;33812;46.480;6.834;2022-12-11T03:50:21;92724.53;;;20.35;34.68
48035;BME280;33812;46.480;6.834;2022-12-11T03:54:24;92731.13;;;20.37;34.41
48035;BME280;33812;46.480;6.834;2022-12-11T03:58:26;92728.50;;;20.34;34.48
48035;BME280;33812;46.480;6.834;2022-12-11T04:02:28;92733.25;;;20.33;34.93
48035;BME280;33812;46.480;6.834;2022-12-11T04:06:31;92733.72;;;20.32;33.96
48035;BME280;33812;46.480;6.834;2022-12-11T04:10:33;92732.19;;;20.31;34.03
48035;BME280;33812;46.480;6.834;2022-12-11T04:14:35;92739.22;;;20.32;33.50
48035;BME280;33812;46.480;6.834;2022-12-11T04:18:54;92739.22;;;20.32;33.94
48035;BME280;33812;46.480;6.834;2022-12-11T04:23:16;92739.22;;;20.32;33.86
48035;BME280;33812;46.480;6.834;2022-12-11T04:27:35;92734.94;;;20.31;33.75
48035;BME280;33812;46.480;6.834;2022-12-11T04:31:49;92727.72;;;20.33;34.25
48035;BME280;33812;46.480;6.834;2022-12-11T04:35:51;92724.22;;;20.33;33.81
48035;BME280;33812;46.480;6.834;2022-12-11T04:39:54;92721.47;;;20.33;33.67
48035;BME280;33812;46.480;6.834;2022-12-11T04:43:56;92710.13;;;20.31;33.84
48035;BME280;33812;46.480;6.834;2022-12-11T04:47:58;92713.66;;;20.31;33.71
48035;BME280;33812;46.480;6.834;2022-12-11T04:52:01;92713.94;;;20.33;33.97
48035;BME280;33812;46.480;6.834;2022-12-11T04:56:06;92711.63;;;20.32;33.50
48035;BME280;33812;46.480;6.834;2022-12-11T05:00:09;92701.06;;;20.30;34.05
48035;BME280;33812;46.480;6.834;2022-12-11T05:04:11;92700.00;;;20.27;33.92
48035;BME280;33812;46.480;6.834;2022-12-11T05:08:13;92694.78;;;20.29;33.93
48035;BME280;33812;46.480;6.834;2022-12-11T05:12:16;92698.63;;;20.32;33.88
48035;BME280;33812;46.480;6.834;2022-12-11T05:16:18;92696.63;;;20.33;33.73
48035;BME280;33812;46.480;6.834;2022-12-11T05:20:20;92691.84;;;20.33;34.11
48035;BME280;33812;46.480;6.834;2022-12-11T05:24:22;92698.94;;;20.34;34.25
48035;BME280;33812;46.480;6.834;2022-12-11T05:28:27;92699.06;;;20.31;33.97
48035;BME280;33812;46.480;6.834;2022-12-11T05:32:29;92702.16;;;20.33;34.01
48035;BME280;33812;46.480;6.834;2022-12-11T05:36:32;92697.84;;;20.32;33.93
48035;BME280;33812;46.480;6.834;2022-12-11T05:40:34;92690.34;;;20.32;34.00
48035;BME280;33812;46.480;6.834;2022-12-11T05:44:37;92696.16;;;20.34;33.50
48035;BME280;33812;46.480;6.834;2022-12-11T05:48:39;92699.84;;;20.31;33.66
48035;BME280;33812;46.480;6.834;2022-12-11T05:52:41;92687.13;;;20.34;33.80
48035;BME280;33812;46.480;6.834;2022-12-11T05:56:43;92694.19;;;20.35;33.93
48035;BME280;33812;46.480;6.834;2022-12-11T06:00:47;92696.47;;;20.36;33.85
48035;BME280;33812;46.480;6.834;2022-12-11T06:04:48;92702.91;;;20.33;33.78
48035;BME280;33812;46.480;6.834;2022-12-11T06:08:51;92695.38;;;20.34;33.70
48035;BME280;33812;46.480;6.834;2022-12-11T06:12:53;92685.44;;;20.36;34.25
48035;BME280;33812;46.480;6.834;2022-12-11T06:16:56;92688.81;;;20.31;33.81
48035;BME280;33812;46.480;6.834;2022-12-11T06:20:58;92682.06;;;20.32;33.75
48035;BME280;33812;46.480;6.834;2022-12-11T06:25:00;92681.00;;;20.29;33.19
48035;BME280;33812;46.480;6.834;2022-12-11T06:29:01;92680.22;;;20.29;32.51
48035;BME280;33812;46.480;6.834;2022-12-11T06:33:05;92685.59;;;20.33;32.53
48035;BME280;33812;46.480;6.834;2022-12-11T06:37:06;92683.75;;;20.39;33.84
48035;BME280;33812;46.480;6.834;2022-12-11T06:41:09;92685.44;;;20.36;32.89
48035;BME280;33812;46.480;6.834;2022-12-11T06:45:10;92696.00;;;20.38;32.63
48035;BME280;33812;46.480;6.834;2022-12-11T06:49:14;92694.78;;;20.39;33.05
48035;BME280;33812;46.480;6.834;2022-12-11T06:53:15;92695.25;;;20.47;34.33
48035;BME280;33812;46.480;6.834;2022-12-11T06:57:17;92696.94;;;20.35;33.34
48035;BME280;33812;46.480;6.834;2022-12-11T07:01:21;92696.94;;;20.44;33.50
48035;BME280;33812;46.480;6.834;2022-12-11T07:05:24;92695.84;;;20.51;34.12
48035;BME280;33812;46.480;6.834;2022-12-11T07:09:26;92702.16;;;20.51;34.45
48035;BME280;33812;46.480;6.834;2022-12-11T07:13:28;92701.38;;;20.51;34.24
48035;BME280;33812;46.480;6.834;2022-12-11T07:17:30;92703.66;;;20.52;35.26
48035;BME280;33812;46.480;6.834;2022-12-11T07:21:34;92702.78;;;20.56;35.19
48035;BME280;33812;46.480;6.834;2022-12-11T07:25:36;92704.44;;;20.53;35.18
48035;BME280;33812;46.480;6.834;2022-12-11T07:29:37;92706.44;;;20.52;35.16
48035;BME280;33812;46.480;6.834;2022-12-11T07:33:40;92702.47;;;20.53;35.39
48035;BME280;33812;46.480;6.834;2022-12-11T07:37:44;92696.31;;;20.59;35.84
48035;BME280;33812;46.480;6.834;2022-12-11T07:41:46;92706.63;;;19.38;25.27
48035;BME280;33812;46.480;6.834;2022-12-11T07:45:48;92712.03;;;16.27;26.38
48035;BME280;33812;46.480;6.834;2022-12-11T07:49:51;92701.66;;;19.24;25.31
48035;BME280;33812;46.480;6.834;2022-12-11T07:53:57;92704.38;;;19.55;26.40
48035;BME280;33812;46.480;6.834;2022-12-11T07:57:59;92703.66;;;19.74;27.56
48035;BME280;33812;46.480;6.834;2022-12-11T08:02:00;92704.81;;;19.86;28.19
48035;BME280;33812;46.480;6.834;2022-12-11T08:06:02;92703.13;;;19.98;29.65
48035;BME280;33812;46.480;6.834;2022-12-11T08:10:07;92699.94;;;20.09;30.21
48035;BME280;33812;46.480;6.834;2022-12-11T08:14:09;92704.13;;;20.13;30.58
48035;BME280;33812;46.480;6.834;2022-12-11T08:18:11;92693.84;;;20.23;31.47
48035;BME280;33812;46.480;6.834;2022-12-11T08:22:12;92707.78;;;20.20;30.45
48035;BME280;33812;46.480;6.834;2022-12-11T08:26:17;92700.59;;;20.22;32.01
48035;BME280;33812;46.480;6.834;2022-12-11T08:30:19;92701.38;;;20.32;31.81
48035;BME280;33812;46.480;6.834;2022-12-11T08:34:21;92709.19;;;20.34;32.92
48035;BME280;33812;46.480;6.834;2022-12-11T08:38:23;92696.47;;;20.36;32.98
48035;BME280;33812;46.480;6.834;2022-12-11T08:42:27;92692.97;;;20.45;32.97
48035;BME280;33812;46.480;6.834;2022-12-11T08:46:30;92693.72;;;20.46;34.01
48035;BME280;33812;46.480;6.834;2022-12-11T08:50:32;92698.94;;;20.53;33.87
48035;BME280;33812;46.480;6.834;2022-12-11T08:54:35;92696.91;;;20.63;34.39
48035;BME280;33812;46.480;6.834;2022-12-11T08:58:39;92689.25;;;20.58;36.16
48035;BME280;33812;46.480;6.834;2022-12-11T09:02:40;92681.91;;;20.64;37.14
48035;BME280;33812;46.480;6.834;2022-12-11T09:06:43;92677.91;;;20.74;37.50
48035;BME280;33812;46.480;6.834;2022-12-11T09:10:45;92673.63;;;20.73;37.80
48035;BME280;33812;46.480;6.834;2022-12-11T09:14:48;92670.69;;;20.77;37.04
48035;BME280;33812;46.480;6.834;2022-12-11T09:18:51;92676.50;;;20.79;36.76
48035;BME280;33812;46.480;6.834;2022-12-11T09:22:53;92678.81;;;20.81;37.82
48035;BME280;33812;46.480;6.834;2022-12-11T09:26:56;92672.38;;;20.84;37.81
48035;BME280;33812;46.480;6.834;2022-12-11T09:30:59;92686.00;;;20.87;37.71
48035;BME280;33812;46.480;6.834;2022-12-11T09:35:01;92677.44;;;20.95;37.12
48035;BME280;33812;46.480;6.834;2022-12-11T09:39:04;92677.75;;;20.97;37.09
48035;BME280;33812;46.480;6.834;2022-12-11T09:43:16;92667.00;;;20.99;36.93
48035;BME280;33812;46.480;6.834;2022-12-11T09:47:24;92668.84;;;21.02;36.76
48035;BME280;33812;46.480;6.834;2022-12-11T09:51:32;92673.31;;;20.99;36.07
48035;BME280;33812;46.480;6.834;2022-12-11T09:55:42;92676.53;;;20.98;36.10
48035;BME280;33812;46.480;6.834;2022-12-11T10:00:00;92676.69;;;20.94;34.45
48035;BME280;33812;46.480;6.834;2022-12-11T10:04:17;92685.72;;;20.95;35.03
48035;BME280;33812;46.480;6.834;2022-12-11T10:08:27;92676.53;;;20.98;34.63
48035;BME280;33812;46.480;6.834;2022-12-11T10:12:37;92683.88;;;21.01;35.36
48035;BME280;33812;46.480;6.834;2022-12-11T10:16:48;92687.41;;;21.01;36.33
48035;BME280;33812;46.480;6.834;2022-12-11T10:20:53;92673.56;;;21.01;36.17
48035;BME280;33812;46.480;6.834;2022-12-11T10:24:57;92680.81;;;21.08;36.49
48035;BME280;33812;46.480;6.834;2022-12-11T10:29:01;92671.44;;;21.06;36.99
48035;BME280;33812;46.480;6.834;2022-12-11T10:33:10;92668.97;;;21.08;36.80
48035;BME280;33812;46.480;6.834;2022-12-11T10:37:16;92663.91;;;21.06;37.24
48035;BME280;33812;46.480;6.834;2022-12-11T10:41:21;92667.09;;;21.14;36.31
48035;BME280;33812;46.480;6.834;2022-12-11T10:45:24;92651.78;;;21.04;36.45
48035;BME280;33812;46.480;6.834;2022-12-11T10:49:28;92658.09;;;21.04;35.48
48035;BME280;33812;46.480;6.834;2022-12-11T10:53:33;92647.78;;;21.14;35.15
48035;BME280;33812;46.480;6.834;2022-12-11T10:57:37;92654.22;;;21.20;35.98
48035;BME280;33812;46.480;6.834;2022-12-11T11:01:45;92650.97;;;21.22;37.60
48035;BME280;33812;46.480;6.834;2022-12-11T11:05:47;92650.81;;;21.25;36.47
48035;BME280;33812;46.480;6.834;2022-12-11T11:10:05;92648.59;;;21.39;36.66
48035;BME280;33812;46.480;6.834;2022-12-11T11:14:13;92640.13;;;21.52;36.53
48035;BME280;33812;46.480;6.834;2022-12-11T11:18:21;92643.94;;;21.55;38.10
48035;BME280;33812;46.480;6.834;2022-12-11T11:22:25;92639.41;;;21.67;38.31
48035;BME280;33812;46.480;6.834;2022-12-11T11:26:30;92634.97;;;21.69;37.80
48035;BME280;33812;46.480;6.834;2022-12-11T11:30:34;92639.69;;;21.44;37.64
48035;BME280;33812;46.480;6.834;2022-12-11T11:34:37;92643.31;;;21.50;36.23
48035;BME280;33812;46.480;6.834;2022-12-11T11:38:43;92633.88;;;21.67;37.92
48035;BME280;33812;46.480;6.834;2022-12-11T11:42:54;92631.25;;;21.72;37.60
48035;BME280;33812;46.480;6.834;2022-12-11T11:47:01;92635.50;;;21.83;38.39
48035;BME280;33812;46.480;6.834;2022-12-11T11:51:13;92633.53;;;21.83;38.40
48035;BME280;33812;46.480;6.834;2022-12-11T11:55:18;92628.91;;;21.80;39.77
48035;BME280;33812;46.480;6.834;2022-12-11T11:59:26;92631.94;;;21.92;40.43
48035;BME280;33812;46.480;6.834;2022-12-11T12:03:31;92623.22;;;21.07;27.81
48035;BME280;33812;46.480;6.834;2022-12-11T12:07:37;92624.72;;;19.39;25.68
48035;BME280;33812;46.480;6.834;2022-12-11T12:11:46;92617.72;;;18.83;25.36
48035;BME280;33812;46.480;6.834;2022-12-11T12:15:54;92609.06;;;20.33;28.37
48035;BME280;33812;46.480;6.834;2022-12-11T12:20:06;92608.41;;;20.85;29.18
48035;BME280;33812;46.480;6.834;2022-12-11T12:24:17;92608.19;;;21.08;29.77
48035;BME280;33812;46.480;6.834;2022-12-11T12:28:29;92599.13;;;21.17;31.02
48035;BME280;33812;46.480;6.834;2022-12-11T12:32:48;92607.16;;;21.39;31.03
48035;BME280;33812;46.480;6.834;2022-12-11T12:36:56;92603.44;;;21.42;32.89
48035;BME280;33812;46.480;6.834;2022-12-11T12:41:09;92611.69;;;21.52;32.89
48035;BME280;33812;46.480;6.834;2022-12-11T12:45:20;92606.00;;;21.55;32.86
48035;BME280;33812;46.480;6.834;2022-12-11T12:49:39;92612.28;;;21.56;34.03
48035;BME280;33812;46.480;6.834;2022-12-11T12:53:46;92613.78;;;21.66;33.73
48035;BME280;33812;46.480;6.834;2022-12-11T12:58:03;92616.19;;;21.73;34.24
48035;BME280;33812;46.480;6.834;2022-12-11T13:02:12;92615.25;;;21.77;34.18
48035;BME280;33812;46.480;6.834;2022-12-11T13:06:29;92610.25;;;21.66;34.19
48035;BME280;33812;46.480;6.834;2022-12-11T13:10:32;92605.88;;;21.74;33.28
48035;BME280;33812;46.480;6.834;2022-12-11T13:14:37;92606.03;;;21.80;33.85
48035;BME280;33812;46.480;6.834;2022-12-11T13:18:40;92598.50;;;21.80;33.77
48035;BME280;33812;46.480;6.834;2022-12-11T13:22:54;92600.81;;;21.82;34.13
48035;BME280;33812;46.480;6.834;2022-12-11T13:27:07;92591.56;;;21.85;34.38
48035;BME280;33812;46.480;6.834;2022-12-11T13:31:37;92595.66;;;21.90;34.40
48035;BME280;33812;46.480;6.834;2022-12-11T13:35:39;92585.38;;;21.90;34.43
48035;BME280;33812;46.480;6.834;2022-12-11T13:39:45;92590.91;;;21.90;34.66
48035;BME280;33812;46.480;6.834;2022-12-11T13:43:48;92587.50;;;21.95;34.75
48035;BME280;33812;46.480;6.834;2022-12-11T13:47:51;92596.09;;;21.97;34.71
48035;BME280;33812;46.480;6.834;2022-12-11T13:51:54;92583.31;;;22.00;34.75
48035;BME280;33812;46.480;6.834;2022-12-11T13:56:00;92597.44;;;22.02;34.75
48035;BME280;33812;46.480;6.834;2022-12-11T14:00:03;92591.13;;;22.02;34.83
48035;BME280;33812;46.480;6.834;2022-12-11T14:04:08;92590.94;;;22.05;34.80
48035;BME280;33812;46.480;6.834;2022-12-11T14:08:19;92586.97;;;22.06;34.86
48035;BME280;33812;46.480;6.834;2022-12-11T14:12:23;92587.88;;;22.03;34.78
48035;BME280;33812;46.480;6.834;2022-12-11T14:16:26;92579.69;;;22.09;34.74
48035;BME280;33812;46.480;6.834;2022-12-11T14:20:29;92583.72;;;22.08;34.70
48035;BME280;33812;46.480;6.834;2022-12-11T14:24:32;92584.00;;;22.10;34.71
48035;BME280;33812;46.480;6.834;2022-12-11T14:28:37;92589.06;;;22.12;34.62
48035;BME280;33812;46.480;6.834;2022-12-11T14:32:41;92592.88;;;22.14;34.62
48035;BME280;33812;46.480;6.834;2022-12-11T14:36:45;92596.91;;;22.13;34.56
48035;BME280;33812;46.480;6.834;2022-12-11T14:40:50;92590.88;;;22.15;34.68
48035;BME280;33812;46.480;6.834;2022-12-11T14:44:58;92589.63;;;22.16;34.63
48035;BME280;33812;46.480;6.834;2022-12-11T14:49:03;92588.31;;;22.11;34.61
48035;BME280;33812;46.480;6.834;2022-12-11T14:53:12;92589.06;;;22.12;34.56
48035;BME280;33812;46.480;6.834;2022-12-11T14:57:18;92584.00;;;22.10;34.88
48035;BME280;33812;46.480;6.834;2022-12-11T15:01:24;92584.94;;;22.07;34.70
48035;BME280;33812;46.480;6.834;2022-12-11T15:05:27;92586.38;;;22.02;34.75
48035;BME280;33812;46.480;6.834;2022-12-11T15:09:36;92579.75;;;22.00;34.68
48035;BME280;33812;46.480;6.834;2022-12-11T15:13:50;92579.75;;;22.00;34.58
48035;BME280;33812;46.480;6.834;2022-12-11T15:17:54;92584.44;;;21.93;34.57
48035;BME280;33812;46.480;6.834;2022-12-11T15:22:00;92578.91;;;21.93;34.63
48035;BME280;33812;46.480;6.834;2022-12-11T15:26:02;92588.91;;;21.91;34.51
48035;BME280;33812;46.480;6.834;2022-12-11T15:30:23;92591.38;;;21.89;34.48
48035;BME280;33812;46.480;6.834;2022-12-11T15:34:32;92594.16;;;21.89;36.51
48035;BME280;33812;46.480;6.834;2022-12-11T15:38:36;92599.22;;;21.90;36.08
48035;BME280;33812;46.480;6.834;2022-12-11T15:42:40;92596.16;;;21.88;35.71
48035;BME280;33812;46.480;6.834;2022-12-11T15:46:42;92603.66;;;21.88;36.30
48035;BME280;33812;46.480;6.834;2022-12-11T15:50:45;92604.91;;;21.86;35.97
48035;BME280;33812;46.480;6.834;2022-12-11T15:54:47;92610.16;;;21.84;36.06
48035;BME280;33812;46.480;6.834;2022-12-11T15:58:49;92612.63;;;21.82;36.20
48035;BME280;33812;46.480;6.834;2022-12-11T16:02:51;92609.78;;;21.67;35.98
48035;BME280;33812;46.480;6.834;2022-12-11T16:06:54;92612.72;;;21.64;35.20
48035;BME280;33812;46.480;6.834;2022-12-11T16:10:56;92612.19;;;21.74;35.18
48035;BME280;33812;46.480;6.834;2022-12-11T16:14:58;92622.00;;;21.76;35.58
48035;BME280;33812;46.480;6.834;2022-12-11T16:19:00;92621.72;;;21.73;35.89
48035;BME280;33812;46.480;6.834;2022-12-11T16:23:03;92624.78;;;21.76;35.58
48035;BME280;33812;46.480;6.834;2022-12-11T16:27:06;92627.06;;;21.77;35.77
48035;BME280;33812;46.480;6.834;2022-12-11T16:31:09;92622.81;;;21.67;35.92
48035;BME280;33812;46.480;6.834;2022-12-11T16:35:11;92627.00;;;21.62;35.14
48035;BME280;33812;46.480;6.834;2022-12-11T16:39:14;92621.47;;;21.62;34.94
48035;BME280;33812;46.480;6.834;2022-12-11T16:43:16;92625.75;;;21.63;34.93
48035;BME280;33812;46.480;6.834;2022-12-11T16:47:18;92622.25;;;21.62;34.90
48035;BME280;33812;46.480;6.834;2022-12-11T16:51:19;92619.19;;;21.60;35.18
48035;BME280;33812;46.480;6.834;2022-12-11T16:55:22;92613.47;;;21.30;33.47
48035;BME280;33812;46.480;6.834;2022-12-11T16:59:24;92612.03;;;21.44;35.26
48035;BME280;33812;46.480;6.834;2022-12-11T17:03:26;92608.34;;;21.47;35.11
48035;BME280;33812;46.480;6.834;2022-12-11T17:07:29;92607.88;;;21.49;35.04
48035;BME280;33812;46.480;6.834;2022-12-11T17:11:33;92613.28;;;21.43;35.14
48035;BME280;33812;46.480;6.834;2022-12-11T17:15:38;92621.97;;;21.51;35.21
48035;BME280;33812;46.480;6.834;2022-12-11T17:19:40;92621.03;;;21.54;35.69
48035;BME280;33812;46.480;6.834;2022-12-11T17:23:42;92616.28;;;21.55;35.69
48035;BME280;33812;46.480;6.834;2022-12-11T17:27:45;92620.41;;;21.59;35.74
48035;BME280;33812;46.480;6.834;2022-12-11T17:31:48;92623.63;;;21.58;35.55
48035;BME280;33812;46.480;6.834;2022-12-11T17:35:49;92623.63;;;21.58;35.48
48035;BME280;33812;46.480;6.834;2022-12-11T17:39:51;92625.19;;;21.59;35.39
48035;BME280;33812;46.480;6.834;2022-12-11T17:43:54;92629.47;;;21.60;35.16
48035;BME280;33812;46.480;6.834;2022-12-11T17:47:56;92620.41;;;21.59;34.96
48035;BME280;33812;46.480;6.834;2022-12-11T17:51:58;92624.56;;;21.55;35.58
48035;BME280;33812;46.480;6.834;2022-12-11T17:56:00;92625.94;;;21.59;36.08
48035;BME280;33812;46.480;6.834;2022-12-11T18:00:05;92627.94;;;21.59;35.95
48035;BME280;33812;46.480;6.834;2022-12-11T18:04:07;92635.16;;;21.56;36.02
48035;BME280;33812;46.480;6.834;2022-12-11T18:08:11;92632.69;;;21.58;35.66
48035;BME280;33812;46.480;6.834;2022-12-11T18:12:13;92628.25;;;21.61;36.29
48035;BME280;33812;46.480;6.834;2022-12-11T18:16:18;92629.00;;;21.61;35.08
48035;BME280;33812;46.480;6.834;2022-12-11T18:20:20;92633.78;;;21.61;36.36
48035;BME280;33812;46.480;6.834;2022-12-11T18:24:21;92634.06;;;21.63;34.94
48035;BME280;33812;46.480;6.834;2022-12-11T18:28:25;92636.53;;;21.61;37.11
48035;BME280;33812;46.480;6.834;2022-12-11T18:32:28;92639.53;;;21.72;39.10
48035;BME280;33812;46.480;6.834;2022-12-11T18:36:30;92636.00;;;21.72;39.34
48035;BME280;33812;46.480;6.834;2022-12-11T18:40:31;92643.25;;;21.69;38.46
48035;BME280;33812;46.480;6.834;2022-12-11T18:44:33;92643.56;;;21.71;38.74
48035;BME280;33812;46.480;6.834;2022-12-11T18:48:36;92647.84;;;21.72;39.20
48035;BME280;33812;46.480;6.834;2022-12-11T18:52:51;92638.47;;;21.70;39.66
48035;BME280;33812;46.480;6.834;2022-12-11T18:57:02;92646.03;;;21.69;39.33
48035;BME280;33812;46.480;6.834;2022-12-11T19:01:08;92644.78;;;21.70;39.07
48035;BME280;33812;46.480;6.834;2022-12-11T19:05:11;92649.09;;;21.71;38.70
48035;BME280;33812;46.480;6.834;2022-12-11T19:09:13;92660.34;;;19.74;24.24
48035;BME280;33812;46.480;6.834;2022-12-11T19:13:15;92659.13;;;19.02;27.17
48035;BME280;33812;46.480;6.834;2022-12-11T19:17:17;92652.47;;;20.61;30.38
48035;BME280;33812;46.480;6.834;2022-12-11T19:21:20;92652.56;;;20.95;30.05
48035;BME280;33812;46.480;6.834;2022-12-11T19:25:22;92650.53;;;21.14;31.85
48035;BME280;33812;46.480;6.834;2022-12-11T19:29:26;92657.00;;;21.11;31.73
48035;BME280;33812;46.480;6.834;2022-12-11T19:33:28;92652.81;;;21.16;31.92
48035;BME280;33812;46.480;6.834;2022-12-11T19:37:31;92655.44;;;21.19;32.30
48035;BME280;33812;46.480;6.834;2022-12-11T19:41:33;92661.09;;;21.25;34.46
48035;BME280;33812;46.480;6.834;2022-12-11T19:45:36;92660.47;;;21.30;36.59
48035;BME280;33812;46.480;6.834;2022-12-11T19:49:37;92654.16;;;21.30;37.62
48035;BME280;33812;46.480;6.834;2022-12-11T19:53:44;92649.41;;;21.30;38.31
48035;BME280;33812;46.480;6.834;2022-12-11T19:57:47;92645.13;;;21.29;38.26
48035;BME280;33812;46.480;6.834;2022-12-11T20:01:48;92652.16;;;21.30;38.38
48035;BME280;33812;46.480;6.834;2022-12-11T20:05:50;92660.94;;;21.29;38.45
48035;BME280;33812;46.480;6.834;2022-12-11T20:09:54;92667.41;;;21.25;38.69
48035;BME280;33812;46.480;6.834;2022-12-11T20:13:55;92656.66;;;21.28;38.50
48035;BME280;33812;46.480;6.834;2022-12-11T20:18:00;92655.72;;;21.31;39.09
48035;BME280;33812;46.480;6.834;2022-12-11T20:22:02;92664.31;;;21.33;38.59
48035;BME280;33812;46.480;6.834;2022-12-11T20:26:07;92673.47;;;21.39;38.07
48035;BME280;33812;46.480;6.834;2022-12-11T20:30:12;92670.25;;;21.41;38.15
48035;BME280;33812;46.480;6.834;2022-12-11T20:34:14;92669.19;;;21.38;38.80
48035;BME280;33812;46.480;6.834;2022-12-11T20:38:16;92664.41;;;21.38;38.38
48035;BME280;33812;46.480;6.834;2022-12-11T20:42:19;92664.31;;;21.33;37.83
48035;BME280;33812;46.480;6.834;2022-12-11T20:46:24;92665.66;;;21.37;38.57
48035;BME280;33812;46.480;6.834;2022-12-11T20:50:26;92666.91;;;21.36;37.39
48035;BME280;33812;46.480;6.834;2022-12-11T20:54:28;92656.44;;;21.41;37.87
48035;BME280;33812;46.480;6.834;2022-12-11T20:58:31;92652.91;;;21.40;38.32
48035;BME280;33812;46.480;6.834;2022-12-11T21:02:33;92648.59;;;21.39;39.28
48035;BME280;33812;46.480;6.834;2022-12-11T21:06:36;92646.31;;;21.37;38.46
48035;BME280;33812;46.480;6.834;2022-12-11T21:10:40;92646.16;;;21.41;38.64
48035;BME280;33812;46.480;6.834;2022-12-11T21:14:44;92637.56;;;21.39;38.58
48035;BME280;33812;46.480;6.834;2022-12-11T21:18:46;92645.53;;;21.37;37.52
48035;BME280;33812;46.480;6.834;2022-12-11T21:22:47;92638.91;;;21.44;37.85
48035;BME280;33812;46.480;6.834;2022-12-11T21:26:49;92646.00;;;21.35;37.21
48035;BME280;33812;46.480;6.834;2022-12-11T21:30:52;92644.66;;;21.31;36.05
48035;BME280;33812;46.480;6.834;2022-12-11T21:34:54;92650.47;;;21.33;36.07
48035;BME280;33812;46.480;6.834;2022-12-11T21:38:57;92639.88;;;21.31;35.86